sensor_id;sensor_type;location;lat;lon;timestamp;pressure;altitude;pressure_sealevel;temperature;humidity
9740;BME280;4909;42.680;26.324;2023-04-29T00:00:06;98723.69;;;9.73;62.63
9740;BME280;4909;42.680;26.324;2023-04-29T00:02:36;98738.59;;;9.75;62.98
9740;BME280;4909;42.680;26.324;2023-04-29T00:05:03;98745.50;;;9.79;63.22
9740;BME280;4909;42.680;26.324;2023-04-29T00:07:30;98752.34;;;9.63;62.89
9740;BME280;4909;42.680;26.324;2023-04-29T00:09:58;98743.34;;;9.67;63.77
9740;BME280;4909;42.680;26.324;2023-04-29T00:12:26;98737.41;;;9.60;63.85
9740;BME280;4909;42.680;26.324;2023-04-29T00:14:54;98754.53;;;9.52;64.63
9740;BME280;4909;42.680;26.324;2023-04-29T00:17:21;98739.78;;;9.68;64.75
9740;BME280;4909;42.680;26.324;2023-04-29T00:19:48;98731.56;;;9.74;64.27
9740;BME280;4909;42.680;26.324;2023-04-29T00:22:15;98748.59;;;9.90;64.14
9740;BME280;4909;42.680;26.324;2023-04-29T00:24:42;98752.84;;;9.94;63.48
9740;BME280;4909;42.680;26.324;2023-04-29T00:27:08;98738.63;;;9.97;63.15
9740;BME280;4909;42.680;26.324;2023-04-29T00:29:37;98757.72;;;10.05;63.03
9740;BME280;4909;42.680;26.324;2023-04-29T00:32:04;98749.69;;;9.85;63.97
9740;BME280;4909;42.680;26.324;2023-04-29T00:34:31;98750.97;;;9.75;64.09
9740;BME280;4909;42.680;26.324;2023-04-29T00:36:57;98743.94;;;9.52;64.02
9740;BME280;4909;42.680;26.324;2023-04-29T00:39:24;98737.56;;;9.34;64.88
9740;BME280;4909;42.680;26.324;2023-04-29T00:41:51;98750.47;;;9.43;64.74
9740;BME280;4909;42.680;26.324;2023-04-29T00:44:18;98761.63;;;9.51;65.07
9740;BME280;4909;42.680;26.324;2023-04-29T00:46:46;98751.22;;;9.24;65.57
9740;BME280;4909;42.680;26.324;2023-04-29T00:49:13;98754.91;;;9.20;66.38
9740;BME280;4909;42.680;26.324;2023-04-29T00:51:41;98757.19;;;9.29;66.13
9740;BME280;4909;42.680;26.324;2023-04-29T00:54:08;98751.81;;;9.30;66.19
9740;BME280;4909;42.680;26.324;2023-04-29T00:56:36;98760.47;;;9.12;66.53
9740;BME280;4909;42.680;26.324;2023-04-29T00:59:05;98759.19;;;8.99;66.83
9740;BME280;4909;42.680;26.324;2023-04-29T01:01:34;98755.88;;;8.92;67.66
9740;BME280;4909;42.680;26.324;2023-04-29T01:04:04;98764.44;;;9.00;67.08
9740;BME280;4909;42.680;26.324;2023-04-29T01:06:39;98760.22;;;8.95;67.41
9740;BME280;4909;42.680;26.324;2023-04-29T01:09:17;98746.88;;;9.21;66.83
9740;BME280;4909;42.680;26.324;2023-04-29T01:11:56;98742.75;;;9.14;66.52
9740;BME280;4909;42.680;26.324;2023-04-29T01:14:26;98754.47;;;9.30;66.11
9740;BME280;4909;42.680;26.324;2023-04-29T01:16:58;98736.22;;;8.99;66.76
9740;BME280;4909;42.680;26.324;2023-04-29T01:19:43;98752.16;;;8.98;67.09
9740;BME280;4909;42.680;26.324;2023-04-29T01:22:12;98749.50;;;8.98;67.29
9740;BME280;4909;42.680;26.324;2023-04-29T01:24:43;98711.97;;;8.62;68.00
9740;BME280;4909;42.680;26.324;2023-04-29T01:27:16;98727.06;;;8.85;68.24
9740;BME280;4909;42.680;26.324;2023-04-29T01:29:52;98720.56;;;8.68;68.34
9740;BME280;4909;42.680;26.324;2023-04-29T01:32:26;98735.16;;;8.80;68.28
9740;BME280;4909;42.680;26.324;2023-04-29T01:35:00;98727.28;;;8.79;68.43
9740;BME280;4909;42.680;26.324;2023-04-29T01:37:36;98730.94;;;8.75;68.75
9740;BME280;4909;42.680;26.324;2023-04-29T01:40:11;98720.94;;;8.83;68.27
9740;BME280;4909;42.680;26.324;2023-04-29T01:42:44;98718.28;;;8.83;68.19
9740;BME280;4909;42.680;26.324;2023-04-29T01:45:14;98726.16;;;8.86;68.44
9740;BME280;4909;42.680;26.324;2023-04-29T01:47:42;98714.72;;;8.84;68.30
9740;BME280;4909;42.680;26.324;2023-04-29T01:50:10;98719.63;;;8.71;69.02
9740;BME280;4909;42.680;26.324;2023-04-29T01:52:37;98718.78;;;8.69;69.02
9740;BME280;4909;42.680;26.324;2023-04-29T01:55:05;98722.50;;;8.63;69.25
9740;BME280;4909;42.680;26.324;2023-04-29T01:57:33;98713.22;;;8.77;68.94
9740;BME280;4909;42.680;26.324;2023-04-29T02:00:00;98723.00;;;8.75;69.14
9740;BME280;4909;42.680;26.324;2023-04-29T02:02:26;98723.97;;;8.72;69.42
9740;BME280;4909;42.680;26.324;2023-04-29T02:04:53;98718.25;;;8.84;68.85
9740;BME280;4909;42.680;26.324;2023-04-29T02:07:20;98706.97;;;9.02;68.54
9740;BME280;4909;42.680;26.324;2023-04-29T02:09:47;98715.38;;;8.90;68.35
9740;BME280;4909;42.680;26.324;2023-04-29T02:12:14;98710.31;;;8.84;68.38
9740;BME280;4909;42.680;26.324;2023-04-29T02:14:42;98705.50;;;8.95;68.17
9740;BME280;4909;42.680;26.324;2023-04-29T02:17:09;98706.06;;;8.80;68.52
9740;BME280;4909;42.680;26.324;2023-04-29T02:19:36;98683.09;;;8.81;68.72
9740;BME280;4909;42.680;26.324;2023-04-29T02:22:02;98704.97;;;9.09;68.18
9740;BME280;4909;42.680;26.324;2023-04-29T02:24:29;98714.97;;;9.01;68.21
9740;BME280;4909;42.680;26.324;2023-04-29T02:26:56;98710.78;;;9.19;67.75
9740;BME280;4909;42.680;26.324;2023-04-29T02:29:24;98715.63;;;9.07;67.52
9740;BME280;4909;42.680;26.324;2023-04-29T02:31:52;98710.88;;;9.15;67.91
9740;BME280;4909;42.680;26.324;2023-04-29T02:34:19;98713.03;;;9.29;67.17
9740;BME280;4909;42.680;26.324;2023-04-29T02:36:46;98701.81;;;9.23;67.06
9740;BME280;4909;42.680;26.324;2023-04-29T02:39:13;98708.88;;;9.22;66.92
9740;BME280;4909;42.680;26.324;2023-04-29T02:41:40;98699.22;;;9.21;66.63
9740;BME280;4909;42.680;26.324;2023-04-29T02:44:07;98703.53;;;9.24;66.86
9740;BME280;4909;42.680;26.324;2023-04-29T02:46:34;98708.16;;;9.19;66.76
9740;BME280;4909;42.680;26.324;2023-04-29T02:49:03;98700.56;;;9.09;67.13
9740;BME280;4909;42.680;26.324;2023-04-29T02:51:30;98709.69;;;9.24;67.40
9740;BME280;4909;42.680;26.324;2023-04-29T02:53:56;98709.88;;;9.20;67.44
9740;BME280;4909;42.680;26.324;2023-04-29T02:56:23;98696.88;;;9.13;67.30
9740;BME280;4909;42.680;26.324;2023-04-29T02:58:50;98710.41;;;9.29;67.17
9740;BME280;4909;42.680;26.324;2023-04-29T03:01:17;98713.72;;;9.34;66.91
9740;BME280;4909;42.680;26.324;2023-04-29T03:03:43;98709.97;;;9.40;66.28
9740;BME280;4909;42.680;26.324;2023-04-29T03:06:12;98714.88;;;9.27;66.38
9740;BME280;4909;42.680;26.324;2023-04-29T03:08:40;98711.88;;;9.13;67.31
9740;BME280;4909;42.680;26.324;2023-04-29T03:11:07;98708.41;;;9.11;67.15
9740;BME280;4909;42.680;26.324;2023-04-29T03:13:34;98707.31;;;8.93;67.41
9740;BME280;4909;42.680;26.324;2023-04-29T03:16:01;98702.03;;;8.93;66.89
9740;BME280;4909;42.680;26.324;2023-04-29T03:18:28;98681.72;;;8.94;67.36
9740;BME280;4909;42.680;26.324;2023-04-29T03:20:55;98704.03;;;8.87;67.06
9740;BME280;4909;42.680;26.324;2023-04-29T03:23:24;98711.53;;;8.99;67.49
9740;BME280;4909;42.680;26.324;2023-04-29T03:25:51;98702.78;;;9.20;66.85
9740;BME280;4909;42.680;26.324;2023-04-29T03:28:20;98701.13;;;9.39;66.18
9740;BME280;4909;42.680;26.324;2023-04-29T03:30:46;98694.69;;;9.46;65.42
9740;BME280;4909;42.680;26.324;2023-04-29T03:33:13;98677.06;;;9.24;65.10
9740;BME280;4909;42.680;26.324;2023-04-29T03:35:40;98684.00;;;9.26;65.86
9740;BME280;4909;42.680;26.324;2023-04-29T03:38:07;98697.53;;;9.42;65.47
9740;BME280;4909;42.680;26.324;2023-04-29T03:40:35;98706.53;;;9.59;65.01
9740;BME280;4909;42.680;26.324;2023-04-29T03:43:02;98714.00;;;9.72;64.67
9740;BME280;4909;42.680;26.324;2023-04-29T03:45:29;98711.97;;;9.78;64.54
9740;BME280;4909;42.680;26.324;2023-04-29T03:47:56;98705.94;;;9.75;63.79
9740;BME280;4909;42.680;26.324;2023-04-29T03:50:22;98692.19;;;9.65;63.83
9740;BME280;4909;42.680;26.324;2023-04-29T03:52:50;98704.97;;;9.54;64.94
9740;BME280;4909;42.680;26.324;2023-04-29T03:55:17;98702.81;;;9.42;64.76
9740;BME280;4909;42.680;26.324;2023-04-29T03:57:45;98713.38;;;9.43;65.21
9740;BME280;4909;42.680;26.324;2023-04-29T04:00:12;98716.47;;;9.31;66.14
9740;BME280;4909;42.680;26.324;2023-04-29T04:02:39;98709.56;;;9.27;65.91
9740;BME280;4909;42.680;26.324;2023-04-29T04:05:06;98711.47;;;9.24;66.19
9740;BME280;4909;42.680;26.324;2023-04-29T04:07:34;98713.47;;;9.40;65.38
9740;BME280;4909;42.680;26.324;2023-04-29T04:10:01;98705.44;;;9.43;65.71
9740;BME280;4909;42.680;26.324;2023-04-29T04:12:28;98709.53;;;9.50;65.42
9740;BME280;4909;42.680;26.324;2023-04-29T04:14:56;98707.25;;;9.41;65.17
9740;BME280;4909;42.680;26.324;2023-04-29T04:17:23;98708.06;;;9.43;65.50
9740;BME280;4909;42.680;26.324;2023-04-29T04:19:50;98720.22;;;9.71;64.62
9740;BME280;4909;42.680;26.324;2023-04-29T04:22:17;98719.00;;;9.79;64.11
9740;BME280;4909;42.680;26.324;2023-04-29T04:24:43;98714.97;;;10.13;63.84
9740;BME280;4909;42.680;26.324;2023-04-29T04:27:10;98692.88;;;10.12;63.00
9740;BME280;4909;42.680;26.324;2023-04-29T04:29:37;98705.63;;;10.26;62.16
9740;BME280;4909;42.680;26.324;2023-04-29T04:32:06;98728.53;;;10.49;62.20
9740;BME280;4909;42.680;26.324;2023-04-29T04:34:32;98711.84;;;10.65;62.06
9740;BME280;4909;42.680;26.324;2023-04-29T04:36:59;98705.63;;;10.86;60.68
9740;BME280;4909;42.680;26.324;2023-04-29T04:39:26;98723.38;;;11.05;59.93
9740;BME280;4909;42.680;26.324;2023-04-29T04:41:53;98717.78;;;11.11;59.37
9740;BME280;4909;42.680;26.324;2023-04-29T04:44:19;98715.63;;;11.19;59.53
9740;BME280;4909;42.680;26.324;2023-04-29T04:46:46;98718.13;;;11.42;59.16
9740;BME280;4909;42.680;26.324;2023-04-29T04:49:14;98716.97;;;11.85;57.76
9740;BME280;4909;42.680;26.324;2023-04-29T04:51:42;98715.59;;;12.48;56.29
9740;BME280;4909;42.680;26.324;2023-04-29T04:54:09;98711.53;;;13.26;54.28
9740;BME280;4909;42.680;26.324;2023-04-29T04:56:36;98690.31;;;13.71;51.97
9740;BME280;4909;42.680;26.324;2023-04-29T04:59:03;98716.91;;;14.34;51.21
9740;BME280;4909;42.680;26.324;2023-04-29T05:01:30;98710.41;;;14.40;50.27
9740;BME280;4909;42.680;26.324;2023-04-29T05:03:56;98708.19;;;14.01;49.78
9740;BME280;4909;42.680;26.324;2023-04-29T05:06:25;98710.44;;;13.61;50.37
9740;BME280;4909;42.680;26.324;2023-04-29T05:08:52;98713.63;;;13.52;51.19
9740;BME280;4909;42.680;26.324;2023-04-29T05:11:19;98710.44;;;13.45;51.26
9740;BME280;4909;42.680;26.324;2023-04-29T05:13:46;98687.69;;;13.23;50.40
9740;BME280;4909;42.680;26.324;2023-04-29T05:16:13;98715.06;;;13.09;50.72
9740;BME280;4909;42.680;26.324;2023-04-29T05:18:41;98713.47;;;13.22;50.45
9740;BME280;4909;42.680;26.324;2023-04-29T05:21:09;98718.16;;;13.34;50.39
9740;BME280;4909;42.680;26.324;2023-04-29T05:23:38;98725.38;;;12.82;51.42
9740;BME280;4909;42.680;26.324;2023-04-29T05:26:04;98710.78;;;12.89;52.36
9740;BME280;4909;42.680;26.324;2023-04-29T05:28:31;98731.47;;;13.01;52.06
9740;BME280;4909;42.680;26.324;2023-04-29T05:30:58;98725.63;;;12.78;56.38
9740;BME280;4909;42.680;26.324;2023-04-29T05:33:25;98733.75;;;12.75;58.28
9740;BME280;4909;42.680;26.324;2023-04-29T05:35:52;98736.16;;;12.79;59.50
9740;BME280;4909;42.680;26.324;2023-04-29T05:38:18;98737.66;;;12.85;59.87
9740;BME280;4909;42.680;26.324;2023-04-29T05:40:46;98737.91;;;12.80;59.84
9740;BME280;4909;42.680;26.324;2023-04-29T05:43:14;98733.81;;;12.73;60.18
9740;BME280;4909;42.680;26.324;2023-04-29T05:45:45;98732.31;;;12.85;60.63
9740;BME280;4909;42.680;26.324;2023-04-29T05:48:12;98739.38;;;12.34;61.46
9740;BME280;4909;42.680;26.324;2023-04-29T05:50:39;98743.84;;;12.51;60.83
9740;BME280;4909;42.680;26.324;2023-04-29T05:53:05;98745.03;;;12.62;60.18
9740;BME280;4909;42.680;26.324;2023-04-29T05:55:32;98736.47;;;12.73;60.14
9740;BME280;4909;42.680;26.324;2023-04-29T05:58:00;98735.13;;;12.99;58.60
9740;BME280;4909;42.680;26.324;2023-04-29T06:00:27;98737.47;;;12.88;58.59
9740;BME280;4909;42.680;26.324;2023-04-29T06:02:54;98726.81;;;13.05;57.82
9740;BME280;4909;42.680;26.324;2023-04-29T06:05:21;98722.50;;;13.20;58.39
9740;BME280;4909;42.680;26.324;2023-04-29T06:07:48;98730.56;;;13.35;56.75
9740;BME280;4909;42.680;26.324;2023-04-29T06:10:15;98726.78;;;13.39;56.82
9740;BME280;4909;42.680;26.324;2023-04-29T06:12:42;98730.56;;;13.18;58.96
9740;BME280;4909;42.680;26.324;2023-04-29T06:15:10;98728.94;;;12.98;59.01
9740;BME280;4909;42.680;26.324;2023-04-29T06:17:37;98725.00;;;13.23;57.15
9740;BME280;4909;42.680;26.324;2023-04-29T06:20:05;98721.19;;;13.44;56.58
9740;BME280;4909;42.680;26.324;2023-04-29T06:22:32;98666.22;;;13.41;57.10
9740;BME280;4909;42.680;26.324;2023-04-29T06:24:59;98705.72;;;13.82;55.29
9740;BME280;4909;42.680;26.324;2023-04-29T06:27:26;98715.94;;;14.05;54.10
9740;BME280;4909;42.680;26.324;2023-04-29T06:29:53;98713.03;;;13.94;53.86
9740;BME280;4909;42.680;26.324;2023-04-29T06:32:22;98715.09;;;13.89;52.69
9740;BME280;4909;42.680;26.324;2023-04-29T06:34:49;98715.75;;;13.61;52.39
9740;BME280;4909;42.680;26.324;2023-04-29T06:37:16;98678.69;;;13.57;53.19
9740;BME280;4909;42.680;26.324;2023-04-29T06:39:42;98717.31;;;13.97;51.15
9740;BME280;4909;42.680;26.324;2023-04-29T06:42:09;98709.03;;;14.17;51.89
9740;BME280;4909;42.680;26.324;2023-04-29T06:44:36;98710.78;;;14.48;52.29
9740;BME280;4909;42.680;26.324;2023-04-29T06:47:03;98710.75;;;14.63;50.02
9740;BME280;4909;42.680;26.324;2023-04-29T06:49:31;98710.13;;;14.28;50.41
9740;BME280;4909;42.680;26.324;2023-04-29T06:51:58;98702.81;;;14.32;51.01
9740;BME280;4909;42.680;26.324;2023-04-29T06:54:26;98688.13;;;14.99;50.52
9740;BME280;4909;42.680;26.324;2023-04-29T06:56:53;98699.47;;;15.02;50.10
9740;BME280;4909;42.680;26.324;2023-04-29T06:59:20;98689.72;;;15.15;48.87
9740;BME280;4909;42.680;26.324;2023-04-29T07:01:47;98698.59;;;15.16;49.13
9740;BME280;4909;42.680;26.324;2023-04-29T07:04:13;98701.97;;;15.19;47.54
9740;BME280;4909;42.680;26.324;2023-04-29T07:06:41;98688.59;;;15.48;48.81
9740;BME280;4909;42.680;26.324;2023-04-29T07:09:11;98695.47;;;15.38;47.34
9740;BME280;4909;42.680;26.324;2023-04-29T07:11:38;98688.13;;;15.27;48.59
9740;BME280;4909;42.680;26.324;2023-04-29T07:14:05;98690.00;;;14.97;48.82
9740;BME280;4909;42.680;26.324;2023-04-29T07:16:32;98696.72;;;15.18;50.70
9740;BME280;4909;42.680;26.324;2023-04-29T07:18:59;98701.47;;;15.70;48.63
9740;BME280;4909;42.680;26.324;2023-04-29T07:21:26;98696.72;;;16.01;47.31
9740;BME280;4909;42.680;26.324;2023-04-29T07:23:54;98694.91;;;16.41;49.75
9740;BME280;4909;42.680;26.324;2023-04-29T07:26:20;98682.94;;;16.86;46.03
9740;BME280;4909;42.680;26.324;2023-04-29T07:28:47;98671.22;;;17.25;48.41
9740;BME280;4909;42.680;26.324;2023-04-29T07:31:14;98678.91;;;17.68;45.92
9740;BME280;4909;42.680;26.324;2023-04-29T07:33:41;98694.13;;;17.80;43.17
9740;BME280;4909;42.680;26.324;2023-04-29T07:36:10;98685.56;;;17.62;42.65
9740;BME280;4909;42.680;26.324;2023-04-29T07:38:36;98669.31;;;17.89;41.50
9740;BME280;4909;42.680;26.324;2023-04-29T07:41:04;98690.69;;;17.91;41.18
9740;BME280;4909;42.680;26.324;2023-04-29T07:43:31;98681.69;;;18.03;39.83
9740;BME280;4909;42.680;26.324;2023-04-29T07:45:58;98677.25;;;18.14;38.68
9740;BME280;4909;42.680;26.324;2023-04-29T07:48:25;98675.25;;;18.05;36.63
9740;BME280;4909;42.680;26.324;2023-04-29T07:50:51;98671.72;;;18.40;38.73
9740;BME280;4909;42.680;26.324;2023-04-29T07:53:19;98647.84;;;18.83;36.36
9740;BME280;4909;42.680;26.324;2023-04-29T07:55:46;98673.19;;;19.14;37.20
9740;BME280;4909;42.680;26.324;2023-04-29T07:58:14;98674.69;;;19.40;35.71
9740;BME280;4909;42.680;26.324;2023-04-29T08:00:40;98658.41;;;19.30;35.74
9740;BME280;4909;42.680;26.324;2023-04-29T08:03:07;98651.06;;;19.32;35.24
9740;BME280;4909;42.680;26.324;2023-04-29T08:05:34;98666.97;;;19.24;37.27
9740;BME280;4909;42.680;26.324;2023-04-29T08:08:01;98650.03;;;18.89;37.91
9740;BME280;4909;42.680;26.324;2023-04-29T08:10:28;98664.97;;;19.04;41.47
9740;BME280;4909;42.680;26.324;2023-04-29T08:12:55;98650.13;;;18.65;42.22
9740;BME280;4909;42.680;26.324;2023-04-29T08:15:23;98650.75;;;18.80;42.41
9740;BME280;4909;42.680;26.324;2023-04-29T08:17:50;98635.19;;;18.61;43.49
9740;BME280;4909;42.680;26.324;2023-04-29T08:20:17;98639.53;;;18.86;42.92
9740;BME280;4909;42.680;26.324;2023-04-29T08:22:43;98642.56;;;18.70;42.60
9740;BME280;4909;42.680;26.324;2023-04-29T08:25:10;98645.72;;;18.40;43.75
9740;BME280;4909;42.680;26.324;2023-04-29T08:27:37;98640.94;;;18.56;44.16
9740;BME280;4909;42.680;26.324;2023-04-29T08:30:05;98641.03;;;19.23;42.80
9740;BME280;4909;42.680;26.324;2023-04-29T08:32:33;98630.63;;;19.30;41.74
9740;BME280;4909;42.680;26.324;2023-04-29T08:35:00;98633.13;;;18.64;43.16
9740;BME280;4909;42.680;26.324;2023-04-29T08:37:27;98635.56;;;18.56;43.75
9740;BME280;4909;42.680;26.324;2023-04-29T08:39:54;98632.28;;;18.40;43.07
9740;BME280;4909;42.680;26.324;2023-04-29T08:42:32;98633.28;;;18.85;42.99
9740;BME280;4909;42.680;26.324;2023-04-29T08:44:59;98600.00;;;18.64;41.61
9740;BME280;4909;42.680;26.324;2023-04-29T08:47:28;98620.84;;;18.95;42.00
9740;BME280;4909;42.680;26.324;2023-04-29T08:49:57;98610.72;;;19.10;41.70
9740;BME280;4909;42.680;26.324;2023-04-29T08:52:27;98601.03;;;19.52;40.33
9740;BME280;4909;42.680;26.324;2023-04-29T08:54:53;98617.56;;;19.59;40.48
9740;BME280;4909;42.680;26.324;2023-04-29T08:57:22;98618.63;;;19.67;40.83
9740;BME280;4909;42.680;26.324;2023-04-29T08:59:51;98628.44;;;19.68;39.22
9740;BME280;4909;42.680;26.324;2023-04-29T09:02:19;98616.69;;;19.58;39.81
9740;BME280;4909;42.680;26.324;2023-04-29T09:04:54;98608.97;;;19.65;41.12
9740;BME280;4909;42.680;26.324;2023-04-29T09:07:26;98607.22;;;20.18;39.88
9740;BME280;4909;42.680;26.324;2023-04-29T09:09:54;98606.91;;;20.00;39.47
9740;BME280;4909;42.680;26.324;2023-04-29T09:12:21;98601.88;;;20.07;39.92
9740;BME280;4909;42.680;26.324;2023-04-29T09:21:20;98588.59;;;20.67;38.07
9740;BME280;4909;42.680;26.324;2023-04-29T09:23:50;98582.81;;;21.02;36.56
9740;BME280;4909;42.680;26.324;2023-04-29T09:26:17;98581.19;;;20.60;37.75
9740;BME280;4909;42.680;26.324;2023-04-29T09:28:45;98577.91;;;20.56;37.50
9740;BME280;4909;42.680;26.324;2023-04-29T09:31:12;98572.03;;;20.51;34.50
9740;BME280;4909;42.680;26.324;2023-04-29T09:33:50;98559.47;;;20.41;36.72
9740;BME280;4909;42.680;26.324;2023-04-29T09:36:38;98562.56;;;20.36;36.66
9740;BME280;4909;42.680;26.324;2023-04-29T09:39:07;98568.34;;;20.73;37.21
9740;BME280;4909;42.680;26.324;2023-04-29T09:41:41;98565.22;;;20.77;35.57
9740;BME280;4909;42.680;26.324;2023-04-29T09:44:09;98563.16;;;20.60;36.81
9740;BME280;4909;42.680;26.324;2023-04-29T09:46:36;98556.00;;;20.50;34.41
9740;BME280;4909;42.680;26.324;2023-04-29T09:49:03;98551.19;;;20.32;35.12
9740;BME280;4909;42.680;26.324;2023-04-29T09:51:30;98541.03;;;20.25;36.34
9740;BME280;4909;42.680;26.324;2023-04-29T09:53:59;98551.56;;;20.28;35.43
9740;BME280;4909;42.680;26.324;2023-04-29T09:56:48;98505.16;;;19.72;35.18
9740;BME280;4909;42.680;26.324;2023-04-29T09:59:15;98547.63;;;20.00;37.16
9740;BME280;4909;42.680;26.324;2023-04-29T10:01:42;98538.69;;;20.00;37.17
9740;BME280;4909;42.680;26.324;2023-04-29T10:04:10;98542.22;;;20.11;37.91
9740;BME280;4909;42.680;26.324;2023-04-29T10:06:37;98533.66;;;20.38;37.85
9740;BME280;4909;42.680;26.324;2023-04-29T10:09:07;98537.91;;;20.41;36.47
9740;BME280;4909;42.680;26.324;2023-04-29T10:11:39;98538.53;;;20.74;35.84
9740;BME280;4909;42.680;26.324;2023-04-29T10:14:06;98532.75;;;20.58;34.93
9740;BME280;4909;42.680;26.324;2023-04-29T10:16:39;98516.75;;;20.36;34.91
9740;BME280;4909;42.680;26.324;2023-04-29T10:19:14;98518.03;;;20.21;34.33
9740;BME280;4909;42.680;26.324;2023-04-29T10:21:45;98499.31;;;19.99;36.51
9740;BME280;4909;42.680;26.324;2023-04-29T10:24:16;98505.75;;;20.07;35.96
9740;BME280;4909;42.680;26.324;2023-04-29T10:26:46;98512.09;;;20.06;34.78
9740;BME280;4909;42.680;26.324;2023-04-29T10:29:14;98511.47;;;19.82;34.81
9740;BME280;4909;42.680;26.324;2023-04-29T10:31:42;98510.38;;;19.84;34.48
9740;BME280;4909;42.680;26.324;2023-04-29T10:34:10;98467.66;;;19.37;36.41
9740;BME280;4909;42.680;26.324;2023-04-29T10:36:38;98508.03;;;19.59;35.79
9740;BME280;4909;42.680;26.324;2023-04-29T10:39:11;98502.88;;;19.56;35.07
9740;BME280;4909;42.680;26.324;2023-04-29T10:41:44;98494.63;;;19.80;35.87
9740;BME280;4909;42.680;26.324;2023-04-29T10:44:11;98495.94;;;19.53;35.83
9740;BME280;4909;42.680;26.324;2023-04-29T10:46:38;98498.03;;;20.03;36.94
9740;BME280;4909;42.680;26.324;2023-04-29T10:49:05;98492.91;;;20.20;36.43
9740;BME280;4909;42.680;26.324;2023-04-29T10:51:33;98491.06;;;19.79;34.68
9740;BME280;4909;42.680;26.324;2023-04-29T10:54:02;98496.88;;;19.64;35.58
9740;BME280;4909;42.680;26.324;2023-04-29T10:56:37;98493.50;;;19.50;37.08
9740;BME280;4909;42.680;26.324;2023-04-29T10:59:09;98483.16;;;19.67;36.12
9740;BME280;4909;42.680;26.324;2023-04-29T11:01:43;98474.34;;;19.65;38.11
9740;BME280;4909;42.680;26.324;2023-04-29T11:04:11;98480.81;;;19.73;36.44
9740;BME280;4909;42.680;26.324;2023-04-29T11:06:40;98483.38;;;19.75;35.92
9740;BME280;4909;42.680;26.324;2023-04-29T11:09:10;98467.81;;;19.78;37.24
9740;BME280;4909;42.680;26.324;2023-04-29T11:11:57;98474.97;;;19.89;36.59
9740;BME280;4909;42.680;26.324;2023-04-29T11:14:29;98473.66;;;19.83;36.45
9740;BME280;4909;42.680;26.324;2023-04-29T11:16:57;98475.91;;;19.99;36.91
9740;BME280;4909;42.680;26.324;2023-04-29T11:19:29;98466.69;;;20.02;37.31
9740;BME280;4909;42.680;26.324;2023-04-29T11:22:24;98469.69;;;20.29;36.25
9740;BME280;4909;42.680;26.324;2023-04-29T11:24:53;98478.13;;;20.15;36.10
9740;BME280;4909;42.680;26.324;2023-04-29T11:27:21;98432.78;;;19.78;35.45
9740;BME280;4909;42.680;26.324;2023-04-29T11:29:51;98472.13;;;19.70;36.19
9740;BME280;4909;42.680;26.324;2023-04-29T11:32:20;98460.06;;;19.53;37.41
9740;BME280;4909;42.680;26.324;2023-04-29T11:34:47;98462.09;;;19.61;38.28
9740;BME280;4909;42.680;26.324;2023-04-29T11:37:19;98421.84;;;19.27;36.90
9740;BME280;4909;42.680;26.324;2023-04-29T11:39:46;98453.44;;;19.03;37.54
9740;BME280;4909;42.680;26.324;2023-04-29T11:42:13;98463.63;;;18.99;39.26
9740;BME280;4909;42.680;26.324;2023-04-29T11:44:39;98456.75;;;19.06;39.95
9740;BME280;4909;42.680;26.324;2023-04-29T11:47:07;98455.38;;;19.23;40.57
9740;BME280;4909;42.680;26.324;2023-04-29T11:49:34;98452.19;;;19.29;38.33
9740;BME280;4909;42.680;26.324;2023-04-29T11:52:02;98449.97;;;19.23;38.40
9740;BME280;4909;42.680;26.324;2023-04-29T11:54:29;98448.72;;;19.49;39.22
9740;BME280;4909;42.680;26.324;2023-04-29T11:56:57;98439.66;;;19.71;38.31
9740;BME280;4909;42.680;26.324;2023-04-29T11:59:25;98418.44;;;19.57;38.27
9740;BME280;4909;42.680;26.324;2023-04-29T12:01:52;98443.13;;;19.94;38.48
9740;BME280;4909;42.680;26.324;2023-04-29T12:04:20;98423.75;;;19.79;38.28
9740;BME280;4909;42.680;26.324;2023-04-29T12:06:50;98424.72;;;19.78;38.76
9740;BME280;4909;42.680;26.324;2023-04-29T12:09:17;98424.84;;;19.77;38.18
9740;BME280;4909;42.680;26.324;2023-04-29T12:11:44;98421.72;;;19.29;37.51
9740;BME280;4909;42.680;26.324;2023-04-29T12:14:12;98425.72;;;19.02;38.64
9740;BME280;4909;42.680;26.324;2023-04-29T12:16:39;98421.91;;;19.05;40.81
9740;BME280;4909;42.680;26.324;2023-04-29T12:19:07;98411.91;;;18.96;40.39
9740;BME280;4909;42.680;26.324;2023-04-29T12:21:36;98410.41;;;19.03;39.07
9740;BME280;4909;42.680;26.324;2023-04-29T12:24:03;98405.31;;;18.89;38.91
9740;BME280;4909;42.680;26.324;2023-04-29T12:26:30;98417.13;;;19.08;40.25
9740;BME280;4909;42.680;26.324;2023-04-29T12:28:58;98413.38;;;19.00;38.92
9740;BME280;4909;42.680;26.324;2023-04-29T12:31:31;98399.63;;;18.71;39.63
9740;BME280;4909;42.680;26.324;2023-04-29T12:33:59;98403.88;;;18.74;40.06
9740;BME280;4909;42.680;26.324;2023-04-29T12:36:28;98400.38;;;18.62;39.79
9740;BME280;4909;42.680;26.324;2023-04-29T12:38:57;98386.16;;;18.71;41.61
9740;BME280;4909;42.680;26.324;2023-04-29T12:41:45;98390.47;;;19.17;41.09
9740;BME280;4909;42.680;26.324;2023-04-29T12:44:12;98377.09;;;19.26;39.69
9740;BME280;4909;42.680;26.324;2023-04-29T12:46:40;98367.00;;;19.39;40.19
9740;BME280;4909;42.680;26.324;2023-04-29T12:49:07;98375.78;;;19.41;39.74
9740;BME280;4909;42.680;26.324;2023-04-29T12:51:34;98372.59;;;19.47;39.87
9740;BME280;4909;42.680;26.324;2023-04-29T12:54:03;98373.72;;;19.66;39.65
9740;BME280;4909;42.680;26.324;2023-04-29T12:56:31;98368.19;;;19.46;39.23
9740;BME280;4909;42.680;26.324;2023-04-29T12:59:04;98341.25;;;19.26;39.08
9740;BME280;4909;42.680;26.324;2023-04-29T13:01:31;98351.81;;;19.38;39.04
9740;BME280;4909;42.680;26.324;2023-04-29T13:03:58;98368.63;;;19.31;39.40
9740;BME280;4909;42.680;26.324;2023-04-29T13:06:25;98363.22;;;19.10;39.05
9740;BME280;4909;42.680;26.324;2023-04-29T13:08:52;98354.19;;;19.00;39.35
9740;BME280;4909;42.680;26.324;2023-04-29T13:11:20;98354.69;;;18.94;39.75
9740;BME280;4909;42.680;26.324;2023-04-29T13:13:47;98331.47;;;18.93;40.65
9740;BME280;4909;42.680;26.324;2023-04-29T13:16:13;98351.97;;;19.05;42.22
9740;BME280;4909;42.680;26.324;2023-04-29T13:18:40;98350.38;;;19.34;40.85
9740;BME280;4909;42.680;26.324;2023-04-29T13:21:07;98333.09;;;19.48;39.92
9740;BME280;4909;42.680;26.324;2023-04-29T13:23:34;98343.13;;;19.67;40.63
9740;BME280;4909;42.680;26.324;2023-04-29T13:26:00;98350.69;;;19.73;40.21